sensor_id;sensor_type;location;lat;lon;timestamp;P1;durP1;ratioP1;P2;durP2;ratioP2
38911;SDS011;28444;48.056;14.408;2022-08-01T00:00:01;5.03;;;3.10;;
38911;SDS011;28444;48.056;14.408;2022-08-01T00:02:35;3.20;;;2.85;;
38911;SDS011;28444;48.056;14.408;2022-08-01T00:05:04;4.00;;;2.90;;
38911;SDS011;28444;48.056;14.408;2022-08-01T00:07:32;6.05;;;3.33;;
38911;SDS011;28444;48.056;14.408;2022-08-01T00:10:03;4.22;;;3.20;;
38911;SDS011;28444;48.056;14.408;2022-08-01T00:12:31;3.42;;;2.92;;
38911;SDS011;28444;48.056;14.408;2022-08-01T00:14:58;6.18;;;3.20;;
38911;SDS011;28444;48.056;14.408;2022-08-01T00:17:24;3.72;;;2.67;;
38911;SDS011;28444;48.056;14.408;2022-08-01T00:19:51;8.63;;;2.80;;
38911;SDS011;28444;48.056;14.408;2022-08-01T00:22:18;5.38;;;2.58;;
38911;SDS011;28444;48.056;14.408;2022-08-01T00:24:45;3.13;;;2.83;;
38911;SDS011;28444;48.056;14.408;2022-08-01T00:27:11;2.88;;;2.67;;
38911;SDS011;28444;48.056;14.408;2022-08-01T00:29:38;3.80;;;3.22;;
38911;SDS011;28444;48.056;14.408;2022-08-01T00:32:25;3.72;;;3.33;;
38911;SDS011;28444;48.056;14.408;2022-08-01T00:34:52;4.65;;;3.25;;
38911;SDS011;28444;48.056;14.408;2022-08-01T00:37:19;3.70;;;3.35;;
38911;SDS011;28444;48.056;14.408;2022-08-01T00:39:45;5.93;;;3.25;;
38911;SDS011;28444;48.056;14.408;2022-08-01T00:42:12;6.47;;;3.08;;
38911;SDS011;28444;48.056;14.408;2022-08-01T00:44:39;3.78;;;3.17;;
38911;SDS011;28444;48.056;14.408;2022-08-01T00:47:06;5.25;;;3.10;;
38911;SDS011;28444;48.056;14.408;2022-08-01T00:49:33;6.85;;;3.65;;
38911;SDS011;28444;48.056;14.408;2022-08-01T00:52:00;3.80;;;3.10;;
38911;SDS011;28444;48.056;14.408;2022-08-01T00:54:31;3.58;;;3.28;;
38911;SDS011;28444;48.056;14.408;2022-08-01T00:56:58;4.68;;;3.28;;
38911;SDS011;28444;48.056;14.408;2022-08-01T00:59:25;5.75;;;3.67;;
38911;SDS011;28444;48.056;14.408;2022-08-01T01:01:53;3.42;;;3.13;;
38911;SDS011;28444;48.056;14.408;2022-08-01T01:04:20;9.20;;;3.75;;
38911;SDS011;28444;48.056;14.408;2022-08-01T01:09:46;3.33;;;3.03;;
38911;SDS011;28444;48.056;14.408;2022-08-01T01:12:34;4.13;;;2.60;;
38911;SDS011;28444;48.056;14.408;2022-08-01T01:15:17;4.68;;;3.40;;
38911;SDS011;28444;48.056;14.408;2022-08-01T01:17:58;3.72;;;3.28;;
38911;SDS011;28444;48.056;14.408;2022-08-01T01:20:57;9.30;;;3.38;;
38911;SDS011;28444;48.056;14.408;2022-08-01T01:29:43;11.43;;;3.33;;
38911;SDS011;28444;48.056;14.408;2022-08-01T01:32:32;3.83;;;3.25;;
38911;SDS011;28444;48.056;14.408;2022-08-01T01:35:05;5.93;;;3.08;;
38911;SDS011;28444;48.056;14.408;2022-08-01T01:37:34;3.28;;;2.60;;
38911;SDS011;28444;48.056;14.408;2022-08-01T01:40:05;3.92;;;3.22;;
38911;SDS011;28444;48.056;14.408;2022-08-01T01:42:35;3.67;;;3.05;;
38911;SDS011;28444;48.056;14.408;2022-08-01T01:45:04;5.03;;;3.15;;
38911;SDS011;28444;48.056;14.408;2022-08-01T01:47:32;8.40;;;2.67;;
38911;SDS011;28444;48.056;14.408;2022-08-01T01:50:00;2.97;;;2.53;;
38911;SDS011;28444;48.056;14.408;2022-08-01T01:52:29;5.57;;;2.97;;
38911;SDS011;28444;48.056;14.408;2022-08-01T01:54:58;4.47;;;2.67;;
38911;SDS011;28444;48.056;14.408;2022-08-01T01:57:27;3.75;;;3.35;;
38911;SDS011;28444;48.056;14.408;2022-08-01T01:59:57;4.85;;;3.30;;
38911;SDS011;28444;48.056;14.408;2022-08-01T02:02:26;6.82;;;3.17;;
38911;SDS011;28444;48.056;14.408;2022-08-01T02:04:54;4.30;;;2.97;;
38911;SDS011;28444;48.056;14.408;2022-08-01T02:07:24;3.92;;;2.97;;
38911;SDS011;28444;48.056;14.408;2022-08-01T02:09:52;2.63;;;2.42;;
38911;SDS011;28444;48.056;14.408;2022-08-01T02:12:21;4.95;;;2.30;;
38911;SDS011;28444;48.056;14.408;2022-08-01T02:14:48;4.93;;;2.80;;
38911;SDS011;28444;48.056;14.408;2022-08-01T02:17:16;2.75;;;2.55;;
38911;SDS011;28444;48.056;14.408;2022-08-01T02:19:45;4.65;;;2.97;;
38911;SDS011;28444;48.056;14.408;2022-08-01T02:22:19;2.88;;;2.67;;
38911;SDS011;28444;48.056;14.408;2022-08-01T02:24:58;4.07;;;3.08;;
38911;SDS011;28444;48.056;14.408;2022-08-01T02:27:33;4.50;;;2.65;;
38911;SDS011;28444;48.056;14.408;2022-08-01T02:30:07;2.97;;;2.47;;
38911;SDS011;28444;48.056;14.408;2022-08-01T02:32:41;3.10;;;2.78;;
38911;SDS011;28444;48.056;14.408;2022-08-01T02:35:28;2.88;;;2.60;;
38911;SDS011;28444;48.056;14.408;2022-08-01T02:37:57;10.93;;;3.05;;
38911;SDS011;28444;48.056;14.408;2022-08-01T02:40:28;3.03;;;2.72;;
38911;SDS011;28444;48.056;14.408;2022-08-01T02:42:59;4.50;;;2.97;;
38911;SDS011;28444;48.056;14.408;2022-08-01T02:45:28;4.75;;;2.58;;
38911;SDS011;28444;48.056;14.408;2022-08-01T02:47:59;5.03;;;3.08;;
38911;SDS011;28444;48.056;14.408;2022-08-01T02:50:30;7.50;;;2.70;;
38911;SDS011;28444;48.056;14.408;2022-08-01T02:52:59;7.78;;;2.90;;
38911;SDS011;28444;48.056;14.408;2022-08-01T02:55:28;7.13;;;2.60;;
38911;SDS011;28444;48.056;14.408;2022-08-01T02:57:56;8.07;;;3.05;;
38911;SDS011;28444;48.056;14.408;2022-08-01T03:00:26;5.97;;;2.83;;
38911;SDS011;28444;48.056;14.408;2022-08-01T03:02:54;6.00;;;2.55;;
38911;SDS011;28444;48.056;14.408;2022-08-01T03:05:23;9.48;;;3.28;;
38911;SDS011;28444;48.056;14.408;2022-08-01T03:07:52;8.82;;;2.70;;
38911;SDS011;28444;48.056;14.408;2022-08-01T03:10:28;6.57;;;2.80;;
38911;SDS011;28444;48.056;14.408;2022-08-01T03:12:57;5.90;;;2.97;;
38911;SDS011;28444;48.056;14.408;2022-08-01T03:15:26;6.72;;;2.60;;
38911;SDS011;28444;48.056;14.408;2022-08-01T03:17:58;3.10;;;2.58;;
38911;SDS011;28444;48.056;14.408;2022-08-01T03:20:27;3.22;;;2.90;;
38911;SDS011;28444;48.056;14.408;2022-08-01T03:22:56;3.35;;;3.05;;
38911;SDS011;28444;48.056;14.408;2022-08-01T03:25:25;2.60;;;2.40;;
38911;SDS011;28444;48.056;14.408;2022-08-01T03:27:54;6.80;;;2.40;;
38911;SDS011;28444;48.056;14.408;2022-08-01T03:30:23;7.90;;;3.97;;
38911;SDS011;28444;48.056;14.408;2022-08-01T03:32:52;4.00;;;2.92;;
38911;SDS011;28444;48.056;14.408;2022-08-01T03:35:20;5.90;;;2.80;;
38911;SDS011;28444;48.056;14.408;2022-08-01T03:37:50;3.40;;;2.60;;
38911;SDS011;28444;48.056;14.408;2022-08-01T03:40:42;3.75;;;3.13;;
38911;SDS011;28444;48.056;14.408;2022-08-01T03:43:14;3.45;;;2.78;;
38911;SDS011;28444;48.056;14.408;2022-08-01T03:45:46;5.40;;;3.00;;
38911;SDS011;28444;48.056;14.408;2022-08-01T03:48:16;16.20;;;3.25;;
38911;SDS011;28444;48.056;14.408;2022-08-01T03:50:48;11.00;;;2.97;;
38911;SDS011;28444;48.056;14.408;2022-08-01T03:53:22;13.57;;;3.03;;
38911;SDS011;28444;48.056;14.408;2022-08-01T03:55:52;8.25;;;2.80;;
38911;SDS011;28444;48.056;14.408;2022-08-01T03:58:20;5.80;;;2.65;;
38911;SDS011;28444;48.056;14.408;2022-08-01T04:00:48;6.47;;;3.65;;
38911;SDS011;28444;48.056;14.408;2022-08-01T04:03:15;4.15;;;3.22;;
38911;SDS011;28444;48.056;14.408;2022-08-01T04:05:42;3.13;;;2.83;;
38911;SDS011;28444;48.056;14.408;2022-08-01T04:08:09;7.57;;;3.47;;
38911;SDS011;28444;48.056;14.408;2022-08-01T04:10:36;6.28;;;3.08;;
38911;SDS011;28444;48.056;14.408;2022-08-01T04:13:03;8.13;;;3.42;;
38911;SDS011;28444;48.056;14.408;2022-08-01T04:15:30;20.20;;;4.05;;
38911;SDS011;28444;48.056;14.408;2022-08-01T04:17:57;19.58;;;4.28;;
38911;SDS011;28444;48.056;14.408;2022-08-01T04:20:24;9.25;;;3.10;;
38911;SDS011;28444;48.056;14.408;2022-08-01T04:22:51;5.93;;;2.97;;
38911;SDS011;28444;48.056;14.408;2022-08-01T04:25:32;6.03;;;2.95;;
38911;SDS011;28444;48.056;14.408;2022-08-01T04:28:01;15.20;;;3.40;;
38911;SDS011;28444;48.056;14.408;2022-08-01T04:30:31;5.18;;;3.05;;
38911;SDS011;28444;48.056;14.408;2022-08-01T04:33:01;11.32;;;3.00;;
38911;SDS011;28444;48.056;14.408;2022-08-01T04:35:31;6.32;;;2.83;;
38911;SDS011;28444;48.056;14.408;2022-08-01T04:38:21;8.63;;;3.22;;
38911;SDS011;28444;48.056;14.408;2022-08-01T04:40:53;13.52;;;3.05;;
38911;SDS011;28444;48.056;14.408;2022-08-01T04:43:21;8.70;;;3.30;;
38911;SDS011;28444;48.056;14.408;2022-08-01T04:45:49;10.10;;;3.55;;
38911;SDS011;28444;48.056;14.408;2022-08-01T04:48:17;14.20;;;3.25;;
38911;SDS011;28444;48.056;14.408;2022-08-01T04:50:48;6.03;;;3.30;;
38911;SDS011;28444;48.056;14.408;2022-08-01T04:53:16;8.98;;;3.47;;
38911;SDS011;28444;48.056;14.408;2022-08-01T04:55:44;6.43;;;2.90;;
38911;SDS011;28444;48.056;14.408;2022-08-01T04:58:15;4.78;;;3.00;;
38911;SDS011;28444;48.056;14.408;2022-08-01T05:00:44;12.30;;;2.88;;
38911;SDS011;28444;48.056;14.408;2022-08-01T05:03:11;5.45;;;3.13;;
38911;SDS011;28444;48.056;14.408;2022-08-01T05:05:38;3.42;;;3.13;;
38911;SDS011;28444;48.056;14.408;2022-08-01T05:08:05;8.18;;;3.20;;
38911;SDS011;28444;48.056;14.408;2022-08-01T05:10:32;7.78;;;2.65;;
38911;SDS011;28444;48.056;14.408;2022-08-01T05:13:00;8.95;;;3.25;;
38911;SDS011;28444;48.056;14.408;2022-08-01T05:15:26;3.58;;;2.60;;
38911;SDS011;28444;48.056;14.408;2022-08-01T05:17:53;7.43;;;2.92;;
38911;SDS011;28444;48.056;14.408;2022-08-01T05:20:20;7.03;;;3.53;;
38911;SDS011;28444;48.056;14.408;2022-08-01T05:22:47;7.53;;;3.40;;
38911;SDS011;28444;48.056;14.408;2022-08-01T05:25:14;6.97;;;2.90;;
38911;SDS011;28444;48.056;14.408;2022-08-01T05:27:46;5.65;;;2.58;;
38911;SDS011;28444;48.056;14.408;2022-08-01T05:30:17;4.93;;;2.67;;
38911;SDS011;28444;48.056;14.408;2022-08-01T05:32:44;5.75;;;2.90;;
38911;SDS011;28444;48.056;14.408;2022-08-01T05:35:10;4.95;;;2.92;;
38911;SDS011;28444;48.056;14.408;2022-08-01T05:37:37;4.38;;;2.53;;
38911;SDS011;28444;48.056;14.408;2022-08-01T05:40:04;6.25;;;2.67;;
38911;SDS011;28444;48.056;14.408;2022-08-01T05:42:31;5.22;;;3.00;;
38911;SDS011;28444;48.056;14.408;2022-08-01T05:44:58;7.93;;;2.78;;
38911;SDS011;28444;48.056;14.408;2022-08-01T05:47:25;6.57;;;2.85;;
38911;SDS011;28444;48.056;14.408;2022-08-01T05:49:52;4.53;;;2.78;;
38911;SDS011;28444;48.056;14.408;2022-08-01T05:52:18;7.82;;;3.10;;
38911;SDS011;28444;48.056;14.408;2022-08-01T05:54:45;6.47;;;2.60;;
38911;SDS011;28444;48.056;14.408;2022-08-01T05:57:12;6.53;;;3.03;;
38911;SDS011;28444;48.056;14.408;2022-08-01T05:59:40;6.10;;;2.75;;
38911;SDS011;28444;48.056;14.408;2022-08-01T06:02:07;5.97;;;3.03;;
38911;SDS011;28444;48.056;14.408;2022-08-01T06:04:34;7.90;;;2.75;;
38911;SDS011;28444;48.056;14.408;2022-08-01T06:07:01;4.20;;;2.67;;
38911;SDS011;28444;48.056;14.408;2022-08-01T06:09:28;5.38;;;2.53;;
38911;SDS011;28444;48.056;14.408;2022-08-01T06:11:56;5.30;;;2.80;;
38911;SDS011;28444;48.056;14.408;2022-08-01T06:14:23;9.90;;;3.10;;
38911;SDS011;28444;48.056;14.408;2022-08-01T06:16:50;7.38;;;3.10;;
38911;SDS011;28444;48.056;14.408;2022-08-01T06:19:17;12.02;;;2.83;;
38911;SDS011;28444;48.056;14.408;2022-08-01T06:21:43;5.32;;;2.80;;
38911;SDS011;28444;48.056;14.408;2022-08-01T06:24:10;8.82;;;2.97;;
38911;SDS011;28444;48.056;14.408;2022-08-01T06:26:37;4.13;;;2.60;;
38911;SDS011;28444;48.056;14.408;2022-08-01T06:29:03;4.15;;;2.60;;
38911;SDS011;28444;48.056;14.408;2022-08-01T06:31:31;6.80;;;2.60;;
38911;SDS011;28444;48.056;14.408;2022-08-01T06:33:59;6.95;;;2.60;;
38911;SDS011;28444;48.056;14.408;2022-08-01T06:36:26;3.45;;;2.90;;
38911;SDS011;28444;48.056;14.408;2022-08-01T06:38:53;4.65;;;3.00;;
38911;SDS011;28444;48.056;14.408;2022-08-01T06:41:19;4.60;;;2.65;;
38911;SDS011;28444;48.056;14.408;2022-08-01T06:43:46;4.00;;;2.95;;
38911;SDS011;28444;48.056;14.408;2022-08-01T06:46:13;7.70;;;2.78;;
38911;SDS011;28444;48.056;14.408;2022-08-01T06:48:39;3.88;;;3.22;;
38911;SDS011;28444;48.056;14.408;2022-08-01T06:51:06;6.50;;;2.83;;
38911;SDS011;28444;48.056;14.408;2022-08-01T06:53:37;5.88;;;2.65;;
38911;SDS011;28444;48.056;14.408;2022-08-01T06:56:04;3.80;;;2.63;;
38911;SDS011;28444;48.056;14.408;2022-08-01T06:58:32;6.10;;;2.50;;
38911;SDS011;28444;48.056;14.408;2022-08-01T07:01:01;3.30;;;2.70;;
38911;SDS011;28444;48.056;14.408;2022-08-01T07:03:32;8.43;;;2.80;;
38911;SDS011;28444;48.056;14.408;2022-08-01T07:06:20;4.28;;;2.58;;
38911;SDS011;28444;48.056;14.408;2022-08-01T07:08:50;3.88;;;2.30;;
38911;SDS011;28444;48.056;14.408;2022-08-01T07:11:18;7.47;;;2.50;;
38911;SDS011;28444;48.056;14.408;2022-08-01T07:13:45;11.70;;;3.13;;
38911;SDS011;28444;48.056;14.408;2022-08-01T07:16:13;9.23;;;2.30;;
38911;SDS011;28444;48.056;14.408;2022-08-01T07:18:40;2.70;;;2.30;;
38911;SDS011;28444;48.056;14.408;2022-08-01T07:21:07;8.45;;;3.38;;
38911;SDS011;28444;48.056;14.408;2022-08-01T07:23:54;7.32;;;3.05;;
38911;SDS011;28444;48.056;14.408;2022-08-01T07:26:21;3.35;;;2.10;;
38911;SDS011;28444;48.056;14.408;2022-08-01T07:28:48;3.95;;;2.65;;
38911;SDS011;28444;48.056;14.408;2022-08-01T07:31:15;4.75;;;2.80;;
38911;SDS011;28444;48.056;14.408;2022-08-01T07:33:41;4.15;;;2.60;;
38911;SDS011;28444;48.056;14.408;2022-08-01T07:36:15;6.20;;;2.40;;
38911;SDS011;28444;48.056;14.408;2022-08-01T07:38:42;6.68;;;2.90;;
38911;SDS011;28444;48.056;14.408;2022-08-01T07:41:09;4.45;;;3.35;;
38911;SDS011;28444;48.056;14.408;2022-08-01T07:43:36;7.53;;;3.00;;
38911;SDS011;28444;48.056;14.408;2022-08-01T07:46:03;4.90;;;2.60;;
38911;SDS011;28444;48.056;14.408;2022-08-01T07:48:30;4.53;;;2.42;;
38911;SDS011;28444;48.056;14.408;2022-08-01T07:50:57;6.80;;;3.22;;
38911;SDS011;28444;48.056;14.408;2022-08-01T07:53:24;5.65;;;2.75;;
38911;SDS011;28444;48.056;14.408;2022-08-01T07:55:51;4.78;;;3.08;;
38911;SDS011;28444;48.056;14.408;2022-08-01T07:58:18;3.25;;;2.40;;
38911;SDS011;28444;48.056;14.408;2022-08-01T08:00:44;4.20;;;2.83;;
38911;SDS011;28444;48.056;14.408;2022-08-01T08:03:11;5.88;;;2.80;;
38911;SDS011;28444;48.056;14.408;2022-08-01T08:05:38;3.28;;;2.55;;
38911;SDS011;28444;48.056;14.408;2022-08-01T08:08:24;3.72;;;2.50;;
38911;SDS011;28444;48.056;14.408;2022-08-01T08:10:52;3.85;;;2.78;;
38911;SDS011;28444;48.056;14.408;2022-08-01T08:13:19;7.32;;;2.97;;
38911;SDS011;28444;48.056;14.408;2022-08-01T08:15:46;4.40;;;2.97;;
38911;SDS011;28444;48.056;14.408;2022-08-01T08:18:14;4.50;;;2.80;;
38911;SDS011;28444;48.056;14.408;2022-08-01T08:20:41;5.03;;;2.42;;
38911;SDS011;28444;48.056;14.408;2022-08-01T08:23:08;4.45;;;2.50;;
38911;SDS011;28444;48.056;14.408;2022-08-01T08:26:09;7.20;;;3.17;;
38911;SDS011;28444;48.056;14.408;2022-08-01T08:28:37;3.85;;;2.90;;
38911;SDS011;28444;48.056;14.408;2022-08-01T08:31:05;7.43;;;2.78;;
38911;SDS011;28444;48.056;14.408;2022-08-01T08:33:49;3.95;;;2.28;;
38911;SDS011;28444;48.056;14.408;2022-08-01T08:36:16;6.53;;;3.28;;
38911;SDS011;28444;48.056;14.408;2022-08-01T08:38:43;4.60;;;2.80;;
38911;SDS011;28444;48.056;14.408;2022-08-01T08:41:11;5.50;;;3.35;;
38911;SDS011;28444;48.056;14.408;2022-08-01T08:46:09;15.15;;;3.33;;
38911;SDS011;28444;48.056;14.408;2022-08-01T08:48:39;7.13;;;2.95;;
38911;SDS011;28444;48.056;14.408;2022-08-01T08:51:08;5.53;;;2.92;;
38911;SDS011;28444;48.056;14.408;2022-08-01T08:53:38;6.93;;;2.80;;
38911;SDS011;28444;48.056;14.408;2022-08-01T08:56:13;3.88;;;2.75;;
38911;SDS011;28444;48.056;14.408;2022-08-01T08:58:40;7.93;;;3.28;;
38911;SDS011;28444;48.056;14.408;2022-08-01T09:01:10;8.13;;;3.08;;
38911;SDS011;28444;48.056;14.408;2022-08-01T09:03:39;5.00;;;3.45;;
38911;SDS011;28444;48.056;14.408;2022-08-01T09:06:06;4.65;;;3.00;;
38911;SDS011;28444;48.056;14.408;2022-08-01T09:08:34;6.43;;;3.13;;
38911;SDS011;28444;48.056;14.408;2022-08-01T09:11:01;5.05;;;2.65;;
38911;SDS011;28444;48.056;14.408;2022-08-01T09:13:29;6.82;;;2.95;;
38911;SDS011;28444;48.056;14.408;2022-08-01T09:15:56;5.90;;;2.60;;
38911;SDS011;28444;48.056;14.408;2022-08-01T09:23:58;3.20;;;2.63;;
38911;SDS011;28444;48.056;14.408;2022-08-01T09:26:32;5.07;;;2.70;;
38911;SDS011;28444;48.056;14.408;2022-08-01T09:29:05;6.47;;;2.90;;
38911;SDS011;28444;48.056;14.408;2022-08-01T09:31:39;12.27;;;3.25;;
38911;SDS011;28444;48.056;14.408;2022-08-01T09:34:13;3.90;;;3.13;;
38911;SDS011;28444;48.056;14.408;2022-08-01T09:36:52;8.10;;;3.13;;
38911;SDS011;28444;48.056;14.408;2022-08-01T09:39:23;8.98;;;3.40;;
38911;SDS011;28444;48.056;14.408;2022-08-01T09:42:25;8.27;;;3.53;;
38911;SDS011;28444;48.056;14.408;2022-08-01T09:44:54;6.35;;;2.85;;
38911;SDS011;28444;48.056;14.408;2022-08-01T09:47:22;4.10;;;2.85;;
38911;SDS011;28444;48.056;14.408;2022-08-01T09:50:04;3.53;;;2.63;;
38911;SDS011;28444;48.056;14.408;2022-08-01T09:55:06;4.03;;;3.63;;
38911;SDS011;28444;48.056;14.408;2022-08-01T09:57:33;10.75;;;3.45;;
38911;SDS011;28444;48.056;14.408;2022-08-01T10:00:01;6.47;;;2.65;;
38911;SDS011;28444;48.056;14.408;2022-08-01T10:02:33;6.35;;;3.50;;
38911;SDS011;28444;48.056;14.408;2022-08-01T10:05:04;4.40;;;2.95;;
38911;SDS011;28444;48.056;14.408;2022-08-01T10:07:34;6.82;;;4.25;;
38911;SDS011;28444;48.056;14.408;2022-08-01T10:10:13;4.00;;;3.33;;
38911;SDS011;28444;48.056;14.408;2022-08-01T10:12:42;3.67;;;2.88;;
38911;SDS011;28444;48.056;14.408;2022-08-01T10:15:11;6.05;;;3.17;;
38911;SDS011;28444;48.056;14.408;2022-08-01T10:17:41;6.93;;;2.92;;
38911;SDS011;28444;48.056;14.408;2022-08-01T10:20:30;12.27;;;3.63;;
38911;SDS011;28444;48.056;14.408;2022-08-01T10:22:59;4.88;;;2.80;;
38911;SDS011;28444;48.056;14.408;2022-08-01T10:25:35;4.45;;;3.17;;
38911;SDS011;28444;48.056;14.408;2022-08-01T10:28:16;7.25;;;3.28;;
38911;SDS011;28444;48.056;14.408;2022-08-01T10:30:47;4.40;;;2.50;;
38911;SDS011;28444;48.056;14.408;2022-08-01T10:33:14;4.90;;;2.72;;
38911;SDS011;28444;48.056;14.408;2022-08-01T10:36:02;11.88;;;2.90;;
38911;SDS011;28444;48.056;14.408;2022-08-01T10:38:34;9.95;;;3.65;;
38911;SDS011;28444;48.056;14.408;2022-08-01T10:41:03;4.85;;;3.03;;
38911;SDS011;28444;48.056;14.408;2022-08-01T10:43:32;4.72;;;2.63;;
38911;SDS011;28444;48.056;14.408;2022-08-01T10:46:00;4.05;;;2.92;;
38911;SDS011;28444;48.056;14.408;2022-08-01T10:48:31;8.75;;;3.10;;
38911;SDS011;28444;48.056;14.408;2022-08-01T10:51:04;7.07;;;3.10;;
38911;SDS011;28444;48.056;14.408;2022-08-01T10:53:47;5.05;;;3.13;;
38911;SDS011;28444;48.056;14.408;2022-08-01T10:56:20;5.53;;;2.83;;
38911;SDS011;28444;48.056;14.408;2022-08-01T10:59:02;6.88;;;2.78;;
38911;SDS011;28444;48.056;14.408;2022-08-01T11:01:32;9.95;;;3.13;;
38911;SDS011;28444;48.056;14.408;2022-08-01T11:04:10;8.45;;;3.50;;
38911;SDS011;28444;48.056;14.408;2022-08-01T11:06:52;4.68;;;3.10;;
38911;SDS011;28444;48.056;14.408;2022-08-01T11:09:29;3.47;;;2.47;;
38911;SDS011;28444;48.056;14.408;2022-08-01T11:12:12;3.20;;;2.88;;
38911;SDS011;28444;48.056;14.408;2022-08-01T11:17:35;10.57;;;2.88;;
38911;SDS011;28444;48.056;14.408;2022-08-01T11:28:32;8.43;;;2.80;;
38911;SDS011;28444;48.056;14.408;2022-08-01T11:33:48;5.30;;;3.28;;
38911;SDS011;28444;48.056;14.408;2022-08-01T11:36:17;3.67;;;2.90;;
38911;SDS011;28444;48.056;14.408;2022-08-01T11:41:47;4.90;;;2.75;;
38911;SDS011;28444;48.056;14.408;2022-08-01T11:44:15;7.13;;;3.00;;
38911;SDS011;28444;48.056;14.408;2022-08-01T11:46:57;4.65;;;2.67;;
38911;SDS011;28444;48.056;14.408;2022-08-01T11:49:46;3.25;;;2.80;;
38911;SDS011;28444;48.056;14.408;2022-08-01T11:52:22;15.13;;;3.05;;
38911;SDS011;28444;48.056;14.408;2022-08-01T11:57:28;3.85;;;2.50;;
38911;SDS011;28444;48.056;14.408;2022-08-01T12:00:17;4.47;;;2.50;;
38911;SDS011;28444;48.056;14.408;2022-08-01T12:02:45;5.78;;;3.25;;
38911;SDS011;28444;48.056;14.408;2022-08-01T12:05:14;3.05;;;2.72;;
38911;SDS011;28444;48.056;14.408;2022-08-01T12:07:45;3.87;;;2.73;;
38911;SDS011;28444;48.056;14.408;2022-08-01T12:10:17;16.38;;;3.70;;
38911;SDS011;28444;48.056;14.408;2022-08-01T12:12:49;5.90;;;2.63;;
38911;SDS011;28444;48.056;14.408;2022-08-01T12:15:29;2.53;;;2.33;;
38911;SDS011;28444;48.056;14.408;2022-08-01T12:17:58;7.53;;;2.72;;
38911;SDS011;28444;48.056;14.408;2022-08-01T12:20:29;9.90;;;2.30;;
38911;SDS011;28444;48.056;14.408;2022-08-01T12:22:59;3.72;;;2.58;;
38911;SDS011;28444;48.056;14.408;2022-08-01T12:25:27;5.97;;;2.40;;
38911;SDS011;28444;48.056;14.408;2022-08-01T12:27:54;5.43;;;2.40;;
38911;SDS011;28444;48.056;14.408;2022-08-01T12:30:23;16.42;;;2.83;;
38911;SDS011;28444;48.056;14.408;2022-08-01T12:32:51;9.82;;;2.28;;
38911;SDS011;28444;48.056;14.408;2022-08-01T12:35:20;7.95;;;2.88;;
38911;SDS011;28444;48.056;14.408;2022-08-01T12:37:50;6.85;;;2.60;;
38911;SDS011;28444;48.056;14.408;2022-08-01T12:42:56;7.53;;;2.33;;
38911;SDS011;28444;48.056;14.408;2022-08-01T12:45:30;4.10;;;2.30;;
38911;SDS011;28444;48.056;14.408;2022-08-01T12:48:00;3.30;;;2.03;;
38911;SDS011;28444;48.056;14.408;2022-08-01T12:50:28;5.40;;;2.00;;
38911;SDS011;28444;48.056;14.408;2022-08-01T12:52:57;2.15;;;1.92;;
38911;SDS011;28444;48.056;14.408;2022-08-01T12:55:25;6.30;;;2.10;;
38911;SDS011;28444;48.056;14.408;2022-08-01T12:58:07;4.43;;;2.30;;
38911;SDS011;28444;48.056;14.408;2022-08-01T13:00:42;2.75;;;1.98;;
38911;SDS011;28444;48.056;14.408;2022-08-01T13:05:50;4.07;;;2.78;;
38911;SDS011;28444;48.056;14.408;2022-08-01T13:08:19;4.22;;;2.45;;
38911;SDS011;28444;48.056;14.408;2022-08-01T13:10:47;3.70;;;2.60;;
38911;SDS011;28444;48.056;14.408;2022-08-01T13:13:16;4.15;;;2.53;;
38911;SDS011;28444;48.056;14.408;2022-08-01T13:16:02;4.32;;;2.10;;
38911;SDS011;28444;48.056;14.408;2022-08-01T13:18:32;7.25;;;2.40;;
38911;SDS011;28444;48.056;14.408;2022-08-01T13:23:37;7.25;;;2.33;;
38911;SDS011;28444;48.056;14.408;2022-08-01T13:29:31;2.88;;;2.50;;
38911;SDS011;28444;48.056;14.408;2022-08-01T13:32:11;3.08;;;2.33;;
38911;SDS011;28444;48.056;14.408;2022-08-01T13:35:02;3.55;;;2.38;;
38911;SDS011;28444;48.056;14.408;2022-08-01T13:37:30;4.20;;;2.35;;
38911;SDS011;28444;48.056;14.408;2022-08-01T13:39:57;3.72;;;2.45;;
38911;SDS011;28444;48.056;14.408;2022-08-01T13:42:24;6.97;;;2.65;;
38911;SDS011;28444;48.056;14.408;2022-08-01T13:44:51;5.40;;;2.35;;
38911;SDS011;28444;48.056;14.408;2022-08-01T13:47:18;10.90;;;2.10;;
38911;SDS011;28444;48.056;14.408;2022-08-01T13:49:56;3.50;;;2.38;;
38911;SDS011;28444;48.056;14.408;2022-08-01T13:52:27;2.53;;;1.88;;
38911;SDS011;28444;48.056;14.408;2022-08-01T13:54:53;6.97;;;2.22;;
38911;SDS011;28444;48.056;14.408;2022-08-01T13:57:20;2.90;;;2.15;;
38911;SDS011;28444;48.056;14.408;2022-08-01T13:59:48;3.42;;;2.67;;
38911;SDS011;28444;48.056;14.408;2022-08-01T14:02:14;5.18;;;1.98;;
38911;SDS011;28444;48.056;14.408;2022-08-01T14:04:41;5.95;;;1.85;;
38911;SDS011;28444;48.056;14.408;2022-08-01T14:07:08;3.63;;;1.67;;
38911;SDS011;28444;48.056;14.408;2022-08-01T14:09:40;5.97;;;2.65;;
38911;SDS011;28444;48.056;14.408;2022-08-01T14:12:28;4.50;;;1.98;;
38911;SDS011;28444;48.056;14.408;2022-08-01T14:14:54;8.52;;;2.17;;
38911;SDS011;28444;48.056;14.408;2022-08-01T14:17:22;3.05;;;1.70;;
38911;SDS011;28444;48.056;14.408;2022-08-01T14:19:49;7.22;;;1.58;;
38911;SDS011;28444;48.056;14.408;2022-08-01T14:22:16;4.90;;;1.85;;
38911;SDS011;28444;48.056;14.408;2022-08-01T14:24:42;4.82;;;1.50;;
38911;SDS011;28444;48.056;14.408;2022-08-01T14:27:09;2.50;;;1.65;;
38911;SDS011;28444;48.056;14.408;2022-08-01T14:29:36;7.95;;;1.52;;
38911;SDS011;28444;48.056;14.408;2022-08-01T14:32:23;3.95;;;1.80;;
38911;SDS011;28444;48.056;14.408;2022-08-01T14:34:54;2.28;;;1.73;;
38911;SDS011;28444;48.056;14.408;2022-08-01T14:37:22;4.88;;;1.60;;
38911;SDS011;28444;48.056;14.408;2022-08-01T14:39:55;4.13;;;1.75;;
38911;SDS011;28444;48.056;14.408;2022-08-01T14:42:24;3.63;;;1.70;;
38911;SDS011;28444;48.056;14.408;2022-08-01T14:44:51;4.13;;;1.52;;
38911;SDS011;28444;48.056;14.408;2022-08-01T14:47:18;2.53;;;2.03;;
38911;SDS011;28444;48.056;14.408;2022-08-01T14:49:47;3.05;;;1.75;;
38911;SDS011;28444;48.056;14.408;2022-08-01T14:52:15;3.38;;;1.27;;
38911;SDS011;28444;48.056;14.408;2022-08-01T14:54:42;3.63;;;1.30;;
38911;SDS011;28444;48.056;14.408;2022-08-01T14:57:08;1.70;;;1.20;;
38911;SDS011;28444;48.056;14.408;2022-08-01T14:59:35;6.22;;;1.45;;
38911;SDS011;28444;48.056;14.408;2022-08-01T15:02:02;3.47;;;1.48;;
38911;SDS011;28444;48.056;14.408;2022-08-01T15:04:29;1.35;;;1.20;;
38911;SDS011;28444;48.056;14.408;2022-08-01T15:06:56;2.90;;;1.70;;
38911;SDS011;28444;48.056;14.408;2022-08-01T15:09:23;2.17;;;1.50;;
38911;SDS011;28444;48.056;14.408;2022-08-01T15:11:50;7.95;;;2.25;;
38911;SDS011;28444;48.056;14.408;2022-08-01T15:14:17;4.15;;;1.80;;
38911;SDS011;28444;48.056;14.408;2022-08-01T15:17:02;4.40;;;1.50;;
38911;SDS011;28444;48.056;14.408;2022-08-01T15:19:28;3.75;;;1.80;;
38911;SDS011;28444;48.056;14.408;2022-08-01T15:21:55;4.22;;;1.58;;
38911;SDS011;28444;48.056;14.408;2022-08-01T15:24:24;2.47;;;1.58;;
38911;SDS011;28444;48.056;14.408;2022-08-01T15:26:51;1.73;;;1.52;;
38911;SDS011;28444;48.056;14.408;2022-08-01T15:29:18;2.83;;;1.60;;
38911;SDS011;28444;48.056;14.408;2022-08-01T15:31:45;2.33;;;1.50;;
38911;SDS011;28444;48.056;14.408;2022-08-01T15:34:11;3.65;;;1.48;;
38911;SDS011;28444;48.056;14.408;2022-08-01T15:36:38;5.00;;;1.50;;
38911;SDS011;28444;48.056;14.408;2022-08-01T15:39:11;3.95;;;1.55;;
38911;SDS011;28444;48.056;14.408;2022-08-01T15:41:38;4.05;;;1.73;;